sensor_id;sensor_type;location;lat;lon;timestamp;P1;durP1;ratioP1;P2;durP2;ratioP2
39370;SDS011;25099;51.946;4.838;2023-02-28T00:02:22;3.72;;;1.75;;
39370;SDS011;25099;51.946;4.838;2023-02-28T00:04:48;3.05;;;2.00;;
39370;SDS011;25099;51.946;4.838;2023-02-28T00:07:35;2.70;;;1.88;;
39370;SDS011;25099;51.946;4.838;2023-02-28T00:10:02;5.82;;;2.25;;
39370;SDS011;25099;51.946;4.838;2023-02-28T00:13:01;3.03;;;2.00;;
39370;SDS011;25099;51.946;4.838;2023-02-28T00:15:29;2.55;;;1.80;;
39370;SDS011;25099;51.946;4.838;2023-02-28T00:17:57;13.10;;;2.13;;
39370;SDS011;25099;51.946;4.838;2023-02-28T00:20:24;6.13;;;2.20;;
39370;SDS011;25099;51.946;4.838;2023-02-28T00:22:55;6.70;;;2.38;;
39370;SDS011;25099;51.946;4.838;2023-02-28T00:25:24;3.58;;;2.22;;
39370;SDS011;25099;51.946;4.838;2023-02-28T00:27:56;5.50;;;2.22;;
39370;SDS011;25099;51.946;4.838;2023-02-28T00:30:22;3.22;;;1.95;;
39370;SDS011;25099;51.946;4.838;2023-02-28T00:32:51;2.95;;;2.10;;
39370;SDS011;25099;51.946;4.838;2023-02-28T00:37:47;3.05;;;1.92;;
39370;SDS011;25099;51.946;4.838;2023-02-28T00:40:18;3.63;;;1.80;;
39370;SDS011;25099;51.946;4.838;2023-02-28T00:42:55;5.03;;;2.00;;
39370;SDS011;25099;51.946;4.838;2023-02-28T00:45:26;4.07;;;2.13;;
39370;SDS011;25099;51.946;4.838;2023-02-28T00:47:55;9.40;;;1.73;;
39370;SDS011;25099;51.946;4.838;2023-02-28T00:50:20;6.63;;;2.53;;
39370;SDS011;25099;51.946;4.838;2023-02-28T00:52:52;6.88;;;1.80;;
39370;SDS011;25099;51.946;4.838;2023-02-28T00:55:17;7.68;;;2.15;;
39370;SDS011;25099;51.946;4.838;2023-02-28T00:58:04;7.32;;;2.35;;
39370;SDS011;25099;51.946;4.838;2023-02-28T01:00:44;2.65;;;1.80;;
39370;SDS011;25099;51.946;4.838;2023-02-28T01:03:14;5.97;;;1.90;;
39370;SDS011;25099;51.946;4.838;2023-02-28T01:05:54;4.40;;;1.95;;
39370;SDS011;25099;51.946;4.838;2023-02-28T01:08:31;6.40;;;1.85;;
39370;SDS011;25099;51.946;4.838;2023-02-28T01:11:07;4.80;;;2.10;;
39370;SDS011;25099;51.946;4.838;2023-02-28T01:13:33;4.78;;;2.28;;
39370;SDS011;25099;51.946;4.838;2023-02-28T01:15:59;3.53;;;2.10;;
39370;SDS011;25099;51.946;4.838;2023-02-28T01:18:24;5.80;;;2.50;;
39370;SDS011;25099;51.946;4.838;2023-02-28T01:20:50;4.70;;;2.10;;
39370;SDS011;25099;51.946;4.838;2023-02-28T01:23:18;7.50;;;2.47;;
39370;SDS011;25099;51.946;4.838;2023-02-28T01:25:54;3.97;;;2.45;;
39370;SDS011;25099;51.946;4.838;2023-02-28T01:28:26;4.13;;;2.55;;
39370;SDS011;25099;51.946;4.838;2023-02-28T01:34:01;5.38;;;2.60;;
39370;SDS011;25099;51.946;4.838;2023-02-28T01:36:27;5.90;;;2.65;;
39370;SDS011;25099;51.946;4.838;2023-02-28T01:38:52;4.50;;;2.17;;
39370;SDS011;25099;51.946;4.838;2023-02-28T01:41:19;7.20;;;2.22;;
39370;SDS011;25099;51.946;4.838;2023-02-28T01:46:18;6.47;;;2.30;;
39370;SDS011;25099;51.946;4.838;2023-02-28T01:48:49;3.97;;;1.60;;
39370;SDS011;25099;51.946;4.838;2023-02-28T01:51:22;6.03;;;2.40;;
39370;SDS011;25099;51.946;4.838;2023-02-28T01:53:56;6.47;;;2.35;;
39370;SDS011;25099;51.946;4.838;2023-02-28T01:56:28;3.83;;;2.20;;
39370;SDS011;25099;51.946;4.838;2023-02-28T01:58:58;3.42;;;1.90;;
39370;SDS011;25099;51.946;4.838;2023-02-28T02:01:26;5.05;;;1.88;;
39370;SDS011;25099;51.946;4.838;2023-02-28T02:04:04;5.90;;;2.05;;
39370;SDS011;25099;51.946;4.838;2023-02-28T02:06:48;3.15;;;2.28;;
39370;SDS011;25099;51.946;4.838;2023-02-28T02:09:17;3.72;;;2.20;;
39370;SDS011;25099;51.946;4.838;2023-02-28T02:11:46;3.13;;;2.25;;
39370;SDS011;25099;51.946;4.838;2023-02-28T02:17:34;4.93;;;2.40;;
39370;SDS011;25099;51.946;4.838;2023-02-28T02:33:05;3.33;;;1.95;;
39370;SDS011;25099;51.946;4.838;2023-02-28T02:35:38;5.43;;;2.42;;
39370;SDS011;25099;51.946;4.838;2023-02-28T02:44:22;10.75;;;4.50;;
39370;SDS011;25099;51.946;4.838;2023-02-28T02:46:52;6.10;;;2.60;;
39370;SDS011;25099;51.946;4.838;2023-02-28T02:49:30;5.75;;;2.25;;
39370;SDS011;25099;51.946;4.838;2023-02-28T02:51:58;8.73;;;2.15;;
39370;SDS011;25099;51.946;4.838;2023-02-28T02:54:49;6.38;;;2.45;;
39370;SDS011;25099;51.946;4.838;2023-02-28T02:57:30;4.57;;;2.30;;
39370;SDS011;25099;51.946;4.838;2023-02-28T03:00:00;4.28;;;2.50;;
39370;SDS011;25099;51.946;4.838;2023-02-28T03:02:29;4.43;;;2.58;;
39370;SDS011;25099;51.946;4.838;2023-02-28T03:05:00;2.95;;;2.65;;
39370;SDS011;25099;51.946;4.838;2023-02-28T03:07:29;2.85;;;2.53;;
39370;SDS011;25099;51.946;4.838;2023-02-28T03:10:35;6.00;;;3.05;;
39370;SDS011;25099;51.946;4.838;2023-02-28T03:13:37;4.60;;;2.47;;
39370;SDS011;25099;51.946;4.838;2023-02-28T03:30:26;7.53;;;2.97;;
39370;SDS011;25099;51.946;4.838;2023-02-28T03:33:22;6.10;;;2.75;;
39370;SDS011;25099;51.946;4.838;2023-02-28T03:36:00;4.72;;;2.50;;
39370;SDS011;25099;51.946;4.838;2023-02-28T03:38:35;3.95;;;2.65;;
39370;SDS011;25099;51.946;4.838;2023-02-28T03:41:12;6.70;;;2.58;;
39370;SDS011;25099;51.946;4.838;2023-02-28T03:43:56;4.80;;;2.40;;
39370;SDS011;25099;51.946;4.838;2023-02-28T03:49:17;3.83;;;2.58;;
39370;SDS011;25099;51.946;4.838;2023-02-28T03:51:54;6.10;;;2.72;;
39370;SDS011;25099;51.946;4.838;2023-02-28T03:54:24;4.60;;;2.72;;
39370;SDS011;25099;51.946;4.838;2023-02-28T04:00:02;2.90;;;2.50;;
39370;SDS011;25099;51.946;4.838;2023-02-28T04:02:32;5.22;;;2.55;;
39370;SDS011;25099;51.946;4.838;2023-02-28T04:05:21;5.53;;;2.90;;
39370;SDS011;25099;51.946;4.838;2023-02-28T04:07:54;7.43;;;2.67;;
39370;SDS011;25099;51.946;4.838;2023-02-28T04:10:28;10.32;;;3.17;;
39370;SDS011;25099;51.946;4.838;2023-02-28T04:12:56;4.88;;;2.85;;
39370;SDS011;25099;51.946;4.838;2023-02-28T04:15:33;8.45;;;2.85;;
39370;SDS011;25099;51.946;4.838;2023-02-28T04:17:59;6.72;;;3.13;;
39370;SDS011;25099;51.946;4.838;2023-02-28T04:20:34;4.20;;;2.83;;
39370;SDS011;25099;51.946;4.838;2023-02-28T04:22:59;6.43;;;2.47;;
39370;SDS011;25099;51.946;4.838;2023-02-28T04:25:25;3.33;;;2.53;;
39370;SDS011;25099;51.946;4.838;2023-02-28T04:27:54;3.70;;;2.90;;
39370;SDS011;25099;51.946;4.838;2023-02-28T04:30:19;6.53;;;2.67;;
39370;SDS011;25099;51.946;4.838;2023-02-28T04:32:56;3.90;;;2.65;;
39370;SDS011;25099;51.946;4.838;2023-02-28T04:35:21;3.90;;;3.13;;
39370;SDS011;25099;51.946;4.838;2023-02-28T04:37:58;3.80;;;2.85;;
39370;SDS011;25099;51.946;4.838;2023-02-28T04:40:24;7.70;;;2.92;;
39370;SDS011;25099;51.946;4.838;2023-02-28T04:42:50;7.03;;;3.30;;
39370;SDS011;25099;51.946;4.838;2023-02-28T04:45:17;7.18;;;2.97;;
39370;SDS011;25099;51.946;4.838;2023-02-28T04:48:03;10.73;;;3.42;;
39370;SDS011;25099;51.946;4.838;2023-02-28T04:50:28;4.65;;;3.10;;
39370;SDS011;25099;51.946;4.838;2023-02-28T04:52:59;4.43;;;3.00;;
39370;SDS011;25099;51.946;4.838;2023-02-28T04:55:25;7.07;;;3.35;;
39370;SDS011;25099;51.946;4.838;2023-02-28T04:57:57;5.97;;;3.17;;
39370;SDS011;25099;51.946;4.838;2023-02-28T05:00:22;5.68;;;2.85;;
39370;SDS011;25099;51.946;4.838;2023-02-28T05:02:54;5.68;;;3.15;;
39370;SDS011;25099;51.946;4.838;2023-02-28T05:05:23;4.43;;;3.40;;
39370;SDS011;25099;51.946;4.838;2023-02-28T05:08:05;7.35;;;2.97;;
39370;SDS011;25099;51.946;4.838;2023-02-28T05:10:31;6.65;;;3.00;;
39370;SDS011;25099;51.946;4.838;2023-02-28T05:12:57;5.35;;;3.28;;
39370;SDS011;25099;51.946;4.838;2023-02-28T05:15:33;4.55;;;3.47;;
39370;SDS011;25099;51.946;4.838;2023-02-28T05:18:11;6.53;;;3.97;;
39370;SDS011;25099;51.946;4.838;2023-02-28T05:20:36;6.28;;;3.30;;
39370;SDS011;25099;51.946;4.838;2023-02-28T05:23:02;7.22;;;3.67;;
39370;SDS011;25099;51.946;4.838;2023-02-28T05:25:28;11.18;;;3.58;;
39370;SDS011;25099;51.946;4.838;2023-02-28T05:27:54;3.70;;;3.03;;
39370;SDS011;25099;51.946;4.838;2023-02-28T05:30:19;9.15;;;3.55;;
39370;SDS011;25099;51.946;4.838;2023-02-28T05:32:49;6.93;;;4.10;;
39370;SDS011;25099;51.946;4.838;2023-02-28T05:35:16;7.30;;;3.67;;
39370;SDS011;25099;51.946;4.838;2023-02-28T05:37:55;3.30;;;2.60;;
39370;SDS011;25099;51.946;4.838;2023-02-28T05:40:21;4.28;;;2.63;;
39370;SDS011;25099;51.946;4.838;2023-02-28T05:42:47;6.35;;;2.92;;
39370;SDS011;25099;51.946;4.838;2023-02-28T05:45:12;6.05;;;2.92;;
39370;SDS011;25099;51.946;4.838;2023-02-28T05:47:38;3.35;;;2.08;;
39370;SDS011;25099;51.946;4.838;2023-02-28T05:50:04;4.35;;;2.60;;
39370;SDS011;25099;51.946;4.838;2023-02-28T05:52:31;5.47;;;2.47;;
39370;SDS011;25099;51.946;4.838;2023-02-28T05:54:57;3.55;;;2.40;;
39370;SDS011;25099;51.946;4.838;2023-02-28T05:57:25;5.13;;;2.40;;
39370;SDS011;25099;51.946;4.838;2023-02-28T06:00:09;3.22;;;2.70;;
39370;SDS011;25099;51.946;4.838;2023-02-28T06:02:36;4.70;;;2.58;;
39370;SDS011;25099;51.946;4.838;2023-02-28T06:05:03;9.05;;;2.28;;
39370;SDS011;25099;51.946;4.838;2023-02-28T06:07:31;9.30;;;2.70;;
39370;SDS011;25099;51.946;4.838;2023-02-28T06:12:27;5.18;;;2.10;;
39370;SDS011;25099;51.946;4.838;2023-02-28T06:14:59;3.80;;;2.25;;
39370;SDS011;25099;51.946;4.838;2023-02-28T06:17:27;3.47;;;2.78;;
39370;SDS011;25099;51.946;4.838;2023-02-28T06:19:58;3.00;;;2.28;;
39370;SDS011;25099;51.946;4.838;2023-02-28T06:22:24;3.95;;;2.55;;
39370;SDS011;25099;51.946;4.838;2023-02-28T06:24:50;3.95;;;2.50;;
39370;SDS011;25099;51.946;4.838;2023-02-28T06:27:15;6.88;;;2.25;;
39370;SDS011;25099;51.946;4.838;2023-02-28T06:33:05;3.00;;;2.50;;
39370;SDS011;25099;51.946;4.838;2023-02-28T06:35:33;4.75;;;2.90;;
39370;SDS011;25099;51.946;4.838;2023-02-28T06:40:58;8.55;;;2.70;;
39370;SDS011;25099;51.946;4.838;2023-02-28T06:43:43;4.85;;;2.50;;
39370;SDS011;25099;51.946;4.838;2023-02-28T06:46:18;5.85;;;2.65;;
39370;SDS011;25099;51.946;4.838;2023-02-28T06:48:52;3.53;;;2.80;;
39370;SDS011;25099;51.946;4.838;2023-02-28T06:51:29;5.35;;;3.15;;
39370;SDS011;25099;51.946;4.838;2023-02-28T06:53:55;3.67;;;2.90;;
39370;SDS011;25099;51.946;4.838;2023-02-28T06:56:30;2.90;;;2.60;;
39370;SDS011;25099;51.946;4.838;2023-02-28T06:59:10;2.55;;;2.15;;
39370;SDS011;25099;51.946;4.838;2023-02-28T07:01:42;3.20;;;2.42;;
39370;SDS011;25099;51.946;4.838;2023-02-28T07:04:16;4.53;;;2.70;;
39370;SDS011;25099;51.946;4.838;2023-02-28T07:06:42;6.55;;;2.83;;
39370;SDS011;25099;51.946;4.838;2023-02-28T07:09:13;6.47;;;3.05;;
39370;SDS011;25099;51.946;4.838;2023-02-28T07:11:39;4.28;;;2.67;;
39370;SDS011;25099;51.946;4.838;2023-02-28T07:14:06;5.13;;;2.63;;
39370;SDS011;25099;51.946;4.838;2023-02-28T07:19:16;4.93;;;2.83;;
39370;SDS011;25099;51.946;4.838;2023-02-28T07:21:56;6.07;;;3.33;;
39370;SDS011;25099;51.946;4.838;2023-02-28T07:24:28;9.73;;;2.75;;
39370;SDS011;25099;51.946;4.838;2023-02-28T07:27:03;3.40;;;3.05;;
39370;SDS011;25099;51.946;4.838;2023-02-28T07:29:37;5.20;;;3.03;;
39370;SDS011;25099;51.946;4.838;2023-02-28T07:32:11;5.50;;;3.10;;
39370;SDS011;25099;51.946;4.838;2023-02-28T07:34:48;4.03;;;2.80;;
39370;SDS011;25099;51.946;4.838;2023-02-28T07:37:16;4.78;;;2.58;;
39370;SDS011;25099;51.946;4.838;2023-02-28T07:39:42;5.03;;;3.38;;
39370;SDS011;25099;51.946;4.838;2023-02-28T07:42:07;3.95;;;2.80;;
39370;SDS011;25099;51.946;4.838;2023-02-28T07:44:36;8.48;;;3.03;;
39370;SDS011;25099;51.946;4.838;2023-02-28T07:47:05;3.47;;;2.95;;
39370;SDS011;25099;51.946;4.838;2023-02-28T07:49:40;3.17;;;2.33;;
39370;SDS011;25099;51.946;4.838;2023-02-28T07:55:19;5.82;;;3.15;;
39370;SDS011;25099;51.946;4.838;2023-02-28T07:57:59;6.05;;;3.15;;
39370;SDS011;25099;51.946;4.838;2023-02-28T08:00:28;11.48;;;3.65;;
39370;SDS011;25099;51.946;4.838;2023-02-28T08:02:55;8.18;;;3.83;;
39370;SDS011;25099;51.946;4.838;2023-02-28T08:05:23;6.00;;;3.58;;
39370;SDS011;25099;51.946;4.838;2023-02-28T08:08:04;5.90;;;3.53;;
39370;SDS011;25099;51.946;4.838;2023-02-28T08:10:32;4.13;;;3.50;;
39370;SDS011;25099;51.946;4.838;2023-02-28T08:12:58;3.28;;;2.88;;
39370;SDS011;25099;51.946;4.838;2023-02-28T08:15:30;3.22;;;2.92;;
39370;SDS011;25099;51.946;4.838;2023-02-28T08:17:55;3.88;;;3.10;;
39370;SDS011;25099;51.946;4.838;2023-02-28T08:20:40;4.13;;;3.40;;
39370;SDS011;25099;51.946;4.838;2023-02-28T08:23:05;9.90;;;3.53;;
39370;SDS011;25099;51.946;4.838;2023-02-28T08:25:43;4.78;;;3.20;;
39370;SDS011;25099;51.946;4.838;2023-02-28T08:28:11;6.77;;;2.90;;
39370;SDS011;25099;51.946;4.838;2023-02-28T08:30:59;3.42;;;2.90;;
39370;SDS011;25099;51.946;4.838;2023-02-28T08:34:10;6.40;;;3.15;;
39370;SDS011;25099;51.946;4.838;2023-02-28T08:36:46;3.05;;;2.78;;
39370;SDS011;25099;51.946;4.838;2023-02-28T08:39:30;6.07;;;3.15;;
39370;SDS011;25099;51.946;4.838;2023-02-28T08:42:14;3.95;;;3.05;;
39370;SDS011;25099;51.946;4.838;2023-02-28T08:48:02;5.70;;;4.25;;
39370;SDS011;25099;51.946;4.838;2023-02-28T08:53:25;7.53;;;3.30;;
39370;SDS011;25099;51.946;4.838;2023-02-28T08:56:07;5.93;;;3.97;;
39370;SDS011;25099;51.946;4.838;2023-02-28T08:58:41;3.85;;;3.47;;
39370;SDS011;25099;51.946;4.838;2023-02-28T09:01:07;5.35;;;3.55;;
39370;SDS011;25099;51.946;4.838;2023-02-28T09:03:43;4.57;;;4.18;;
39370;SDS011;25099;51.946;4.838;2023-02-28T09:06:11;4.25;;;3.78;;
39370;SDS011;25099;51.946;4.838;2023-02-28T09:09:07;5.72;;;3.42;;
39370;SDS011;25099;51.946;4.838;2023-02-28T09:11:36;8.25;;;3.85;;
39370;SDS011;25099;51.946;4.838;2023-02-28T09:14:05;7.03;;;5.53;;
39370;SDS011;25099;51.946;4.838;2023-02-28T09:16:46;5.53;;;4.03;;
39370;SDS011;25099;51.946;4.838;2023-02-28T09:19:12;4.88;;;4.07;;
39370;SDS011;25099;51.946;4.838;2023-02-28T09:21:39;7.03;;;4.88;;
39370;SDS011;25099;51.946;4.838;2023-02-28T09:24:11;6.28;;;4.97;;
39370;SDS011;25099;51.946;4.838;2023-02-28T09:26:40;5.97;;;4.75;;
39370;SDS011;25099;51.946;4.838;2023-02-28T09:29:12;7.50;;;4.82;;
39370;SDS011;25099;51.946;4.838;2023-02-28T09:31:37;7.45;;;4.75;;
39370;SDS011;25099;51.946;4.838;2023-02-28T09:34:03;6.90;;;4.18;;
39370;SDS011;25099;51.946;4.838;2023-02-28T09:36:29;6.53;;;4.13;;
39370;SDS011;25099;51.946;4.838;2023-02-28T09:39:00;5.85;;;4.28;;
39370;SDS011;25099;51.946;4.838;2023-02-28T09:41:43;5.60;;;3.92;;
39370;SDS011;25099;51.946;4.838;2023-02-28T09:44:20;5.70;;;3.88;;
39370;SDS011;25099;51.946;4.838;2023-02-28T09:46:56;6.10;;;3.92;;
39370;SDS011;25099;51.946;4.838;2023-02-28T09:49:37;4.10;;;2.58;;
39370;SDS011;25099;51.946;4.838;2023-02-28T09:55:09;8.73;;;2.53;;
39370;SDS011;25099;51.946;4.838;2023-02-28T10:04:05;5.30;;;2.42;;
39370;SDS011;25099;51.946;4.838;2023-02-28T10:12:36;1.83;;;1.70;;
39370;SDS011;25099;51.946;4.838;2023-02-28T10:15:42;3.58;;;2.08;;
39370;SDS011;25099;51.946;4.838;2023-02-28T10:25:18;2.78;;;1.67;;
39370;SDS011;25099;51.946;4.838;2023-02-28T10:30:28;1.63;;;1.50;;
39370;SDS011;25099;51.946;4.838;2023-02-28T10:32:57;2.35;;;1.42;;
39370;SDS011;25099;51.946;4.838;2023-02-28T10:36:14;2.30;;;1.70;;
39370;SDS011;25099;51.946;4.838;2023-02-28T10:50:04;4.18;;;1.73;;
39370;SDS011;25099;51.946;4.838;2023-02-28T11:09:45;1.70;;;1.60;;
39370;SDS011;25099;51.946;4.838;2023-02-28T11:12:25;1.50;;;1.40;;
39370;SDS011;25099;51.946;4.838;2023-02-28T11:15:03;3.50;;;1.70;;
39370;SDS011;25099;51.946;4.838;2023-02-28T11:30:28;2.72;;;1.65;;
39370;SDS011;25099;51.946;4.838;2023-02-28T11:36:31;2.70;;;1.95;;
39370;SDS011;25099;51.946;4.838;2023-02-28T11:39:03;1.95;;;1.50;;
39370;SDS011;25099;51.946;4.838;2023-02-28T11:48:26;2.78;;;1.60;;
39370;SDS011;25099;51.946;4.838;2023-02-28T11:54:21;2.83;;;1.60;;
39370;SDS011;25099;51.946;4.838;2023-02-28T12:05:52;2.00;;;1.45;;
39370;SDS011;25099;51.946;4.838;2023-02-28T12:11:31;5.35;;;1.73;;
39370;SDS011;25099;51.946;4.838;2023-02-28T12:22:12;1.70;;;1.50;;
39370;SDS011;25099;51.946;4.838;2023-02-28T12:28:44;2.15;;;1.63;;
39370;SDS011;25099;51.946;4.838;2023-02-28T12:35:19;2.78;;;1.52;;
39370;SDS011;25099;51.946;4.838;2023-02-28T12:38:09;3.00;;;1.42;;
39370;SDS011;25099;51.946;4.838;2023-02-28T12:40:48;3.75;;;1.65;;
39370;SDS011;25099;51.946;4.838;2023-02-28T12:43:42;1.83;;;1.50;;
39370;SDS011;25099;51.946;4.838;2023-02-28T12:49:49;3.13;;;1.38;;
39370;SDS011;25099;51.946;4.838;2023-02-28T12:52:31;3.15;;;1.80;;
39370;SDS011;25099;51.946;4.838;2023-02-28T12:58:38;1.85;;;1.67;;
39370;SDS011;25099;51.946;4.838;2023-02-28T13:09:33;2.00;;;1.83;;
39370;SDS011;25099;51.946;4.838;2023-02-28T13:12:15;3.15;;;1.77;;
39370;SDS011;25099;51.946;4.838;2023-02-28T13:18:00;2.85;;;1.77;;
39370;SDS011;25099;51.946;4.838;2023-02-28T13:20:34;2.88;;;2.22;;
39370;SDS011;25099;51.946;4.838;2023-02-28T13:23:02;2.30;;;1.77;;
39370;SDS011;25099;51.946;4.838;2023-02-28T13:35:12;1.70;;;1.60;;
39370;SDS011;25099;51.946;4.838;2023-02-28T13:37:36;3.30;;;2.10;;
39370;SDS011;25099;51.946;4.838;2023-02-28T13:40:34;3.33;;;1.95;;
39370;SDS011;25099;51.946;4.838;2023-02-28T13:43:20;1.75;;;1.65;;
39370;SDS011;25099;51.946;4.838;2023-02-28T13:46:31;1.60;;;1.50;;
39370;SDS011;25099;51.946;4.838;2023-02-28T13:52:27;13.73;;;2.40;;
39370;SDS011;25099;51.946;4.838;2023-02-28T14:06:57;2.00;;;1.67;;
39370;SDS011;25099;51.946;4.838;2023-02-28T14:20:53;1.92;;;1.83;;
39370;SDS011;25099;51.946;4.838;2023-02-28T14:35:50;1.85;;;1.73;;
39370;SDS011;25099;51.946;4.838;2023-02-28T14:41:44;2.17;;;1.70;;
39370;SDS011;25099;51.946;4.838;2023-02-28T14:44:31;2.53;;;1.88;;
39370;SDS011;25099;51.946;4.838;2023-02-28T14:49:42;1.55;;;1.45;;
39370;SDS011;25099;51.946;4.838;2023-02-28T14:54:59;2.45;;;1.98;;
39370;SDS011;25099;51.946;4.838;2023-02-28T15:01:00;3.58;;;2.00;;
39370;SDS011;25099;51.946;4.838;2023-02-28T15:03:40;3.38;;;2.00;;
39370;SDS011;25099;51.946;4.838;2023-02-28T15:22:00;2.20;;;1.80;;
39370;SDS011;25099;51.946;4.838;2023-02-28T15:24:47;5.82;;;2.28;;
39370;SDS011;25099;51.946;4.838;2023-02-28T15:27:22;4.63;;;1.75;;
39370;SDS011;25099;51.946;4.838;2023-02-28T15:30:04;5.80;;;1.88;;
39370;SDS011;25099;51.946;4.838;2023-02-28T15:36:11;1.70;;;1.60;;
39370;SDS011;25099;51.946;4.838;2023-02-28T15:42:16;3.03;;;2.30;;
39370;SDS011;25099;51.946;4.838;2023-02-28T15:47:54;2.30;;;2.00;;
39370;SDS011;25099;51.946;4.838;2023-02-28T15:50:38;4.22;;;2.28;;
39370;SDS011;25099;51.946;4.838;2023-02-28T15:53:03;5.10;;;1.90;;
39370;SDS011;25099;51.946;4.838;2023-02-28T15:56:12;3.60;;;2.25;;
39370;SDS011;25099;51.946;4.838;2023-02-28T16:04:26;1.75;;;1.65;;
39370;SDS011;25099;51.946;4.838;2023-02-28T17:12:10;5.47;;;3.35;;
39370;SDS011;25099;51.946;4.838;2023-02-28T18:02:11;9.93;;;5.07;;
39370;SDS011;25099;51.946;4.838;2023-02-28T18:21:03;5.53;;;4.25;;
39370;SDS011;25099;51.946;4.838;2023-02-28T18:23:57;4.95;;;4.00;;
39370;SDS011;25099;51.946;4.838;2023-02-28T18:26:25;4.53;;;4.13;;
39370;SDS011;25099;51.946;4.838;2023-02-28T18:28:52;4.47;;;4.07;;
39370;SDS011;25099;51.946;4.838;2023-02-28T18:31:20;5.03;;;3.90;;
39370;SDS011;25099;51.946;4.838;2023-02-28T18:34:01;4.70;;;4.25;;
39370;SDS011;25099;51.946;4.838;2023-02-28T18:36:37;8.38;;;4.47;;
